Time;durP1;ratioP1;P1;durP2;ratioP2;P2;SDS_P1;SDS_P2;PMS_P1;PMS_P2;Temp;Humidity;BMP_temperature;BMP_pressure;BME280_temperature;BME280_humidity;BME280_pressure;Samples;Min_cycle;Max_cycle;Signal;HPM_P1;HPM_P2
2021/04/06 00:01:49;;;;;;;10.20;3.63;;;2.00;81.60;;;;;;4937980;29;20487;-70
2021/04/06 00:04:19;;;;;;;8.13;2.70;;;2.00;81.50;;;;;;4956403;29;20408;-70
2021/04/06 00:06:49;;;;;;;11.60;3.53;;;2.00;81.60;;;;;;4938067;29;20555;-71
2021/04/06 00:09:18;;;;;;;6.53;2.57;;;2.10;81.70;;;;;;4954882;29;20409;-71
2021/04/06 00:11:46;;;;;;;10.00;2.73;;;2.10;81.60;;;;;;4921234;29;20421;-70
2021/04/06 00:14:14;;;;;;;8.33;3.90;;;2.10;81.30;;;;;;4954749;29;20787;-71
2021/04/06 00:16:45;;;;;;;18.13;4.03;;;2.10;81.20;;;;;;4921241;29;20498;-69
2021/04/06 00:19:19;;;;;;;8.93;2.70;;;2.10;81.10;;;;;;4937350;29;20424;-69
2021/04/06 00:21:49;;;;;;;7.93;3.53;;;2.20;81.20;;;;;;4935541;29;20429;-69
2021/04/06 00:24:17;;;;;;;6.63;2.63;;;2.20;81.40;;;;;;4953884;29;20460;-70
2021/04/06 00:26:49;;;;;;;10.00;3.10;;;2.20;81.00;;;;;;4953863;29;20419;-69
2021/04/06 00:29:17;;;;;;;8.13;2.47;;;2.30;81.00;;;;;;4954434;29;20953;-70
2021/04/06 00:31:50;;;;;;;9.03;3.03;;;2.30;80.90;;;;;;4954215;29;20473;-69
2021/04/06 00:34:18;;;;;;;8.87;2.80;;;2.30;80.90;;;;;;4953429;29;20429;-70
2021/04/06 00:36:53;;;;;;;18.20;2.73;;;2.40;80.80;;;;;;4953108;29;20421;-70
2021/04/06 00:39:27;;;;;;;6.80;2.43;;;2.40;80.60;;;;;;4934811;29;20511;-71
2021/04/06 00:41:55;;;;;;;7.13;2.47;;;2.40;80.30;;;;;;4934607;29;20441;-71
2021/04/06 00:44:22;;;;;;;5.20;2.10;;;2.40;80.30;;;;;;4934821;29;20492;-70
2021/04/06 00:46:49;;;;;;;9.07;2.47;;;2.50;80.10;;;;;;4935579;29;20819;-70
2021/04/06 00:49:17;;;;;;;12.53;3.20;;;2.50;80.00;;;;;;4935176;29;20496;-70
2021/04/06 00:51:50;;;;;;;8.40;3.40;;;2.50;79.20;;;;;;4920112;29;20425;-69
2021/04/06 00:54:16;;;;;;;9.07;4.07;;;2.50;79.10;;;;;;4952023;29;20465;-68
2021/04/06 00:56:44;;;;;;;5.33;2.50;;;2.50;79.10;;;;;;4917393;29;20409;-70
2021/04/06 00:59:12;;;;;;;4.07;2.43;;;2.50;79.10;;;;;;4917725;29;20200;-71
2021/04/06 01:01:45;;;;;;;5.50;2.37;;;2.50;78.80;;;;;;4934196;29;20847;-72
2021/04/06 01:04:17;;;;;;;4.93;2.23;;;2.50;78.60;;;;;;4928454;29;20429;-70
2021/04/06 01:07:02;;;;;;;14.07;3.87;;;2.50;78.50;;;;;;4934286;29;20421;-71
2021/04/06 01:09:49;;;;;;;9.70;3.10;;;2.60;78.50;;;;;;4934573;29;20497;-72
2021/04/06 01:12:17;;;;;;;9.23;2.83;;;2.60;78.40;;;;;;4934907;29;20425;-71
2021/04/06 01:14:45;;;;;;;7.73;1.97;;;2.60;77.90;;;;;;4935407;29;20469;-70
2021/04/06 01:17:14;;;;;;;6.43;1.97;;;2.60;77.90;;;;;;4904182;29;20472;-71
2021/04/06 01:19:40;;;;;;;7.20;2.80;;;2.60;77.70;;;;;;4936314;29;20464;-70
2021/04/06 01:22:10;;;;;;;4.87;2.20;;;2.70;78.00;;;;;;4935277;29;20409;-69
2021/04/06 01:24:38;;;;;;;11.70;2.67;;;2.70;77.70;;;;;;4948506;29;20463;-68
2021/04/06 01:27:07;;;;;;;5.90;2.43;;;2.70;77.70;;;;;;4933660;29;20944;-71
2021/04/06 01:29:34;;;;;;;5.67;1.83;;;2.70;77.40;;;;;;4936028;29;20425;-70
2021/04/06 01:32:00;;;;;;;9.97;2.20;;;2.70;77.40;;;;;;4952856;29;20416;-69
2021/04/06 01:34:27;;;;;;;5.60;2.47;;;2.70;77.50;;;;;;4953003;29;20463;-70
2021/04/06 01:36:55;;;;;;;8.70;3.20;;;2.70;77.50;;;;;;4942876;29;20413;-69
2021/04/06 01:39:26;;;;;;;10.67;2.80;;;2.70;77.90;;;;;;4931479;29;20435;-71
2021/04/06 01:42:05;;;;;;;6.30;1.87;;;2.70;77.40;;;;;;4946899;29;20409;-69
2021/04/06 01:44:31;;;;;;;9.57;2.93;;;2.70;77.40;;;;;;4935456;29;20460;-71
2021/04/06 01:46:58;;;;;;;10.20;3.10;;;2.70;77.60;;;;;;4935326;29;20419;-68
2021/04/06 01:49:25;;;;;;;5.27;1.83;;;2.70;77.60;;;;;;4952522;29;20413;-71
2021/04/06 01:51:55;;;;;;;7.90;2.40;;;2.70;77.40;;;;;;4951442;29;20857;-70
2021/04/06 01:54:21;;;;;;;14.37;2.33;;;2.70;77.30;;;;;;4952386;29;20440;-71
2021/04/06 01:56:58;;;;;;;6.43;2.03;;;2.70;77.20;;;;;;4952359;29;20424;-72
2021/04/06 01:59:50;;;;;;;4.27;1.90;;;2.70;77.20;;;;;;4952275;29;20510;-70
2021/04/06 02:02:14;;;;;;;7.27;1.97;;;2.70;77.50;;;;;;4933394;29;20448;-70
2021/04/06 02:04:43;;;;;;;7.00;2.00;;;2.70;77.60;;;;;;4916096;29;20788;-70
2021/04/06 02:07:12;;;;;;;11.63;2.40;;;2.70;77.50;;;;;;4917542;29;20173;-70
2021/04/06 02:09:39;;;;;;;8.20;2.33;;;2.70;77.40;;;;;;4951728;29;20436;-70
2021/04/06 02:12:06;;;;;;;8.23;3.67;;;2.70;77.50;;;;;;4934656;29;20417;-71
2021/04/06 02:14:32;;;;;;;13.13;1.70;;;2.70;77.50;;;;;;4951847;29;20445;-69
2021/04/06 02:17:03;;;;;;;10.20;2.60;;;2.70;77.40;;;;;;4953305;29;20567;-73
2021/04/06 02:19:36;;;;;;;6.60;1.93;;;2.70;77.90;;;;;;4946915;29;20794;-69
2021/04/06 02:22:04;;;;;;;10.77;2.37;;;2.60;77.60;;;;;;4934207;29;20416;-70
2021/04/06 02:24:34;;;;;;;14.10;3.97;;;2.50;78.10;;;;;;4951496;29;20427;-71
2021/04/06 02:27:16;;;;;;;12.37;3.40;;;2.50;78.50;;;;;;4950725;29;20435;-68
2021/04/06 02:29:50;;;;;;;8.43;2.13;;;2.50;78.70;;;;;;4951804;29;20560;-69
2021/04/06 02:32:21;;;;;;;5.53;2.30;;;2.50;79.30;;;;;;4933284;29;20480;-70
2021/04/06 02:34:54;;;;;;;7.17;1.87;;;2.50;79.30;;;;;;4915918;29;20437;-70
2021/04/06 02:37:22;;;;;;;6.90;1.93;;;2.40;79.50;;;;;;4916314;29;20414;-70
2021/04/06 02:39:49;;;;;;;11.53;2.43;;;2.40;79.80;;;;;;4934055;29;20488;-70
2021/04/06 02:42:25;;;;;;;13.93;2.83;;;2.40;79.70;;;;;;4951834;29;20455;-69
2021/04/06 02:45:08;;;;;;;9.67;2.70;;;2.40;79.90;;;;;;4941278;29;20455;-69
2021/04/06 02:47:38;;;;;;;11.23;2.03;;;2.40;79.90;;;;;;4951947;29;20428;-71
2021/04/06 02:50:06;;;;;;;8.27;2.33;;;2.40;79.90;;;;;;4952510;29;20404;-70
2021/04/06 02:52:32;;;;;;;10.53;2.07;;;2.50;79.70;;;;;;4952353;29;20409;-71
2021/04/06 02:54:58;;;;;;;6.03;1.70;;;2.50;79.60;;;;;;4952043;29;20837;-70
2021/04/06 02:57:25;;;;;;;6.47;2.40;;;2.50;79.30;;;;;;4933718;29;20507;-69
2021/04/06 02:59:52;;;;;;;4.83;2.30;;;2.50;79.20;;;;;;4933276;29;20456;-71
2021/04/06 03:02:18;;;;;;;7.50;3.80;;;2.50;79.30;;;;;;4951846;29;20442;-71
2021/04/06 03:04:45;;;;;;;7.70;2.60;;;2.50;79.70;;;;;;4951770;29;20439;-71
2021/04/06 03:07:26;;;;;;;7.93;2.43;;;2.50;79.90;;;;;;4952242;29;20433;-67
2021/04/06 03:09:56;;;;;;;8.73;3.37;;;2.40;79.80;;;;;;4935813;29;20509;-70
2021/04/06 03:12:31;;;;;;;8.70;3.23;;;2.30;79.80;;;;;;4953751;29;20439;-70
2021/04/06 03:15:03;;;;;;;12.07;2.70;;;2.20;80.20;;;;;;4954973;29;20436;-70
2021/04/06 03:17:45;;;;;;;7.33;2.07;;;2.10;80.70;;;;;;4955009;29;20415;-69
2021/04/06 03:20:12;;;;;;;4.47;2.20;;;2.10;81.00;;;;;;4955367;29;20460;-69
2021/04/06 03:22:38;;;;;;;4.20;2.03;;;2.10;81.40;;;;;;4937884;29;20766;-71
2021/04/06 03:25:05;;;;;;;10.57;3.47;;;2.00;81.10;;;;;;4955166;29;20520;-69
2021/04/06 03:27:32;;;;;;;6.60;3.30;;;2.00;81.10;;;;;;4954607;29;20240;-70
2021/04/06 03:29:58;;;;;;;8.53;1.93;;;2.00;81.10;;;;;;4950586;29;20452;-70
2021/04/06 03:32:24;;;;;;;15.67;3.23;;;2.10;81.00;;;;;;4955826;29;20448;-71
2021/04/06 03:34:52;;;;;;;4.70;2.47;;;2.00;80.80;;;;;;4955959;29;20483;-69
2021/04/06 03:37:20;;;;;;;8.70;4.07;;;2.00;80.90;;;;;;4955578;29;20827;-73
2021/04/06 03:39:46;;;;;;;10.50;2.70;;;2.00;81.30;;;;;;4968774;23;20488;-73
2021/04/06 03:42:24;;;;;;;5.53;2.73;;;2.00;81.40;;;;;;4954558;28;20423;-74
2021/04/06 03:44:50;;;;;;;8.27;2.53;;;2.00;81.50;;;;;;4958052;28;20450;-72
2021/04/06 03:47:16;;;;;;;4.43;2.13;;;2.00;81.40;;;;;;4974529;28;20412;-72
2021/04/06 03:49:48;;;;;;;16.70;4.53;;;2.10;81.70;;;;;;4958039;28;20960;-73
2021/04/06 03:52:15;;;;;;;7.13;2.83;;;2.10;81.70;;;;;;4974789;28;20447;-74
2021/04/06 03:54:47;;;;;;;7.43;3.00;;;2.00;81.60;;;;;;4959282;28;20452;-72
2021/04/06 03:57:31;;;;;;;7.20;3.37;;;2.00;82.00;;;;;;4957890;28;20394;-73
2021/04/06 03:59:57;;;;;;;12.47;4.17;;;1.90;82.70;;;;;;4977324;28;20462;-74
2021/04/06 04:02:24;;;;;;;5.30;3.70;;;1.90;83.00;;;;;;4958950;28;20408;-74
2021/04/06 04:04:53;;;;;;;14.30;4.50;;;1.80;83.30;;;;;;4975401;28;20255;-75
2021/04/06 04:07:19;;;;;;;10.10;3.80;;;1.80;83.70;;;;;;4977170;28;20444;-73
2021/04/06 04:09:45;;;;;;;14.43;4.30;;;1.80;84.40;;;;;;4971738;28;20472;-73
2021/04/06 04:12:11;;;;;;;10.17;3.97;;;1.90;84.50;;;;;;4940340;29;20417;-72
2021/04/06 04:14:37;;;;;;;9.37;3.77;;;1.90;84.50;;;;;;4970951;28;20522;-74
2021/04/06 04:17:06;;;;;;;6.43;3.10;;;1.90;84.30;;;;;;4958964;28;20443;-74
2021/04/06 04:19:32;;;;;;;15.93;3.77;;;1.90;84.30;;;;;;4977835;28;20428;-73
2021/04/06 04:21:58;;;;;;;10.93;3.30;;;1.90;84.10;;;;;;4995470;28;20785;-74
2021/04/06 04:24:24;;;;;;;16.23;5.10;;;1.90;84.10;;;;;;4980960;28;20400;-75
2021/04/06 04:26:49;;;;;;;5.77;3.60;;;2.00;84.10;;;;;;4965015;28;20167;-75
2021/04/06 04:29:15;;;;;;;14.27;4.60;;;2.00;83.90;;;;;;4980315;28;20247;-71
2021/04/06 04:31:44;;;;;;;10.83;4.47;;;2.00;83.90;;;;;;4979009;28;20177;-73
2021/04/06 04:34:11;;;;;;;10.93;4.10;;;2.00;83.80;;;;;;4981633;28;20426;-72
2021/04/06 04:36:36;;;;;;;9.27;4.23;;;2.00;84.50;;;;;;4981483;28;20483;-72
2021/04/06 04:39:04;;;;;;;10.10;5.30;;;2.00;83.70;;;;;;4981304;28;20443;-74
2021/04/06 04:41:30;;;;;;;7.13;3.53;;;2.00;83.70;;;;;;4959903;28;20558;-72
2021/04/06 04:43:56;;;;;;;9.03;3.83;;;2.00;83.30;;;;;;4960310;29;20507;-74
2021/04/06 04:46:22;;;;;;;6.97;3.77;;;2.00;83.10;;;;;;4943165;29;20174;-73
2021/04/06 04:48:48;;;;;;;7.13;3.77;;;1.90;83.00;;;;;;4960173;28;20491;-74
2021/04/06 04:51:13;;;;;;;9.47;3.67;;;1.90;83.20;;;;;;4961540;29;20181;-73
2021/04/06 04:53:39;;;;;;;13.27;3.47;;;1.90;82.90;;;;;;4974554;28;20307;-74
2021/04/06 04:56:05;;;;;;;19.13;3.30;;;2.00;82.90;;;;;;4960112;29;20249;-74
2021/04/06 04:58:31;;;;;;;8.40;3.10;;;1.90;82.60;;;;;;4972934;28;20184;-72
2021/04/06 05:00:56;;;;;;;8.63;3.27;;;1.80;82.50;;;;;;4940309;29;20456;-74
2021/04/06 05:03:22;;;;;;;9.80;2.80;;;1.80;82.70;;;;;;4966245;28;20203;-73
2021/04/06 05:05:47;;;;;;;9.80;4.60;;;1.70;82.80;;;;;;4976818;28;20165;-74
2021/04/06 05:08:13;;;;;;;6.70;2.80;;;1.70;82.60;;;;;;4957269;28;20173;-73
2021/04/06 05:10:39;;;;;;;7.90;2.47;;;1.70;82.70;;;;;;4966360;28;20252;-74
2021/04/06 05:13:04;;;;;;;12.50;2.97;;;1.70;82.90;;;;;;4958685;28;20173;-73
2021/04/06 05:15:30;;;;;;;13.27;3.13;;;1.70;82.60;;;;;;4972232;28;20189;-71
2021/04/06 05:17:57;;;;;;;13.83;3.17;;;1.80;83.40;;;;;;4956430;28;20176;-75
2021/04/06 05:20:23;;;;;;;6.37;2.60;;;1.80;82.00;;;;;;4973319;28;20237;-75
2021/04/06 05:22:50;;;;;;;7.23;2.63;;;1.80;81.40;;;;;;4974088;28;20451;-75
2021/04/06 05:25:16;;;;;;;9.60;2.40;;;1.90;81.30;;;;;;4953642;28;20438;-73
2021/04/06 05:27:41;;;;;;;3.30;1.30;;;1.90;81.20;;;;;;4971837;28;20466;-74
2021/04/06 05:30:08;;;;;;;12.30;2.10;;;2.00;80.70;;;;;;4973034;28;20917;-74
2021/04/06 05:32:33;;;;;;;6.90;2.30;;;2.00;80.70;;;;;;4942865;29;20166;-74
2021/04/06 05:34:59;;;;;;;6.37;1.90;;;2.00;80.30;;;;;;4936405;29;20495;-74
2021/04/06 05:37:25;;;;;;;7.93;2.70;;;2.10;80.30;;;;;;4954624;29;20181;-73
2021/04/06 05:39:51;;;;;;;4.80;1.83;;;2.10;79.90;;;;;;4938509;29;20684;-73
2021/04/06 05:42:17;;;;;;;11.23;2.60;;;2.10;79.60;;;;;;4956361;28;20510;-74
2021/04/06 05:44:45;;;;;;;10.60;3.57;;;2.10;78.90;;;;;;4967129;28;20196;-73
2021/04/06 05:47:19;;;;;;;11.00;2.40;;;2.10;79.00;;;;;;4949015;28;20431;-74
2021/04/06 05:49:45;;;;;;;3.53;1.37;;;2.10;79.30;;;;;;4944549;28;20554;-73
2021/04/06 05:52:11;;;;;;;5.53;2.67;;;2.10;79.30;;;;;;4961350;28;20862;-74
2021/04/06 05:54:37;;;;;;;10.27;3.43;;;2.20;79.10;;;;;;4961307;28;20419;-74
2021/04/06 05:57:03;;;;;;;15.67;3.87;;;2.30;78.50;;;;;;4963105;28;20427;-73
2021/04/06 05:59:29;;;;;;;9.13;2.70;;;2.40;78.60;;;;;;4952115;28;20558;-74
2021/04/06 06:01:56;;;;;;;9.37;3.43;;;2.50;78.50;;;;;;4972546;28;20514;-73
2021/04/06 06:04:23;;;;;;;8.37;2.47;;;2.60;78.20;;;;;;4971815;28;20654;-73
2021/04/06 06:06:49;;;;;;;7.07;2.90;;;2.70;77.80;;;;;;4955750;28;20419;-74
2021/04/06 06:09:31;;;;;;;9.93;2.90;;;2.80;77.20;;;;;;4973090;28;20486;-74
2021/04/06 06:12:07;;;;;;;5.57;3.00;;;2.90;76.10;;;;;;4955395;28;20164;-74
2021/04/06 06:14:36;;;;;;;10.67;2.90;;;3.00;75.30;;;;;;4955316;28;20454;-75
2021/04/06 06:17:25;;;;;;;18.30;3.10;;;3.10;74.80;;;;;;4954012;29;20428;-75
2021/04/06 06:20:00;;;;;;;4.80;2.10;;;3.10;74.00;;;;;;4941876;28;20567;-74
2021/04/06 06:22:32;;;;;;;8.57;2.63;;;3.10;75.00;;;;;;4938207;28;20426;-74
2021/04/06 06:25:07;;;;;;;5.00;2.20;;;3.20;74.40;;;;;;4957059;28;20415;-73
2021/04/06 06:27:48;;;;;;;12.77;3.17;;;3.30;74.10;;;;;;4971361;28;20412;-74
2021/04/06 06:30:25;;;;;;;8.57;2.80;;;3.50;73.40;;;;;;4977029;28;20443;-73
2021/04/06 06:33:19;;;;;;;7.70;2.00;;;3.60;72.40;;;;;;4971306;28;20431;-74
2021/04/06 06:35:50;;;;;;;3.53;2.13;;;3.60;70.10;;;;;;4943806;29;20432;-73
2021/04/06 06:38:43;;;;;;;13.60;2.77;;;3.60;71.50;;;;;;4972071;28;20427;-74
2021/04/06 06:41:14;;;;;;;7.73;2.90;;;3.60;71.50;;;;;;4954597;28;20471;-74
2021/04/06 06:43:42;;;;;;;6.70;3.17;;;3.60;71.30;;;;;;4955470;28;20451;-74
2021/04/06 06:46:37;;;;;;;11.27;3.60;;;3.50;71.10;;;;;;4952475;28;21237;-74
2021/04/06 06:49:06;;;;;;;13.10;2.80;;;3.50;71.80;;;;;;4954306;28;20575;-73
2021/04/06 06:51:34;;;;;;;10.90;1.93;;;3.50;72.50;;;;;;4957099;28;20423;-75
2021/04/06 06:54:02;;;;;;;14.90;2.40;;;3.40;71.20;;;;;;4965135;28;20499;-73
2021/04/06 06:56:41;;;;;;;8.40;2.80;;;3.40;72.10;;;;;;4979272;28;20415;-73
2021/04/06 06:59:09;;;;;;;8.30;3.00;;;3.40;71.60;;;;;;4985489;28;20431;-74
2021/04/06 07:01:37;;;;;;;8.73;2.87;;;3.40;71.50;;;;;;4962948;28;20514;-73
2021/04/06 07:04:07;;;;;;;4.97;2.03;;;3.60;71.30;;;;;;4963714;28;20952;-74
2021/04/06 07:06:34;;;;;;;14.63;4.80;;;3.80;70.90;;;;;;4960487;28;20412;-73
2021/04/06 07:09:18;;;;;;;14.93;4.50;;;3.80;68.80;;;;;;4975836;28;20503;-74
2021/04/06 07:11:45;;;;;;;9.20;4.80;;;3.80;70.00;;;;;;4972242;28;20436;-74
2021/04/06 07:14:11;;;;;;;10.70;4.17;;;4.00;70.50;;;;;;4969520;28;20502;-74
2021/04/06 07:16:39;;;;;;;12.53;4.00;;;4.40;69.00;;;;;;4965063;28;20484;-73
2021/04/06 07:19:06;;;;;;;18.20;5.30;;;4.50;67.40;;;;;;4963264;28;20526;-74
2021/04/06 07:21:32;;;;;;;13.57;5.23;;;4.60;68.60;;;;;;4989288;28;20466;-74
2021/04/06 07:24:08;;;;;;;22.63;8.90;;;4.90;67.80;;;;;;4962611;28;20408;-74
2021/04/06 07:26:34;;;;;;;15.97;5.20;;;5.30;65.40;;;;;;4983654;28;20461;-75
2021/04/06 07:29:12;;;;;;;20.50;6.67;;;5.40;63.40;;;;;;4953914;28;20937;-73
2021/04/06 07:31:38;;;;;;;10.70;4.70;;;5.40;62.40;;;;;;4984822;28;20395;-74
2021/04/06 07:34:12;;;;;;;9.60;4.17;;;5.50;64.20;;;;;;4985856;28;20434;-75
2021/04/06 07:36:38;;;;;;;12.17;4.30;;;5.50;61.50;;;;;;4998327;28;20709;-73
2021/04/06 07:39:09;;;;;;;8.47;4.27;;;5.50;61.20;;;;;;4979829;28;20462;-74
2021/04/06 07:41:39;;;;;;;15.47;5.40;;;5.20;60.10;;;;;;4965040;28;20591;-74
2021/04/06 07:44:05;;;;;;;15.00;5.97;;;5.10;62.80;;;;;;4982794;28;21014;-74
2021/04/06 07:46:36;;;;;;;24.00;7.47;;;6.50;61.90;;;;;;4987998;28;20428;-75
2021/04/06 07:49:08;;;;;;;21.43;5.50;;;8.30;56.90;;;;;;4958414;28;20454;-74
2021/04/06 07:51:40;;;;;;;13.83;4.77;;;9.30;52.30;;;;;;4996160;28;20458;-76
2021/04/06 07:54:07;;;;;;;7.17;3.73;;;10.40;48.50;;;;;;4982873;28;20809;-73
2021/04/06 07:56:52;;;;;;;7.87;4.10;;;11.30;46.30;;;;;;4953381;28;20491;-74
2021/04/06 07:59:18;;;;;;;5.87;2.67;;;10.70;44.60;;;;;;4994462;28;20496;-76
2021/04/06 08:01:45;;;;;;;9.07;4.40;;;10.00;46.30;;;;;;4982054;28;20462;-74
2021/04/06 08:04:14;;;;;;;10.83;2.87;;;9.90;46.50;;;;;;4965087;28;20190;-75
2021/04/06 08:06:53;;;;;;;6.93;3.43;;;9.30;47.20;;;;;;4985234;28;20447;-74
2021/04/06 08:09:35;;;;;;;5.97;3.10;;;8.60;47.40;;;;;;4958702;29;20463;-74
2021/04/06 08:12:10;;;;;;;6.60;2.67;;;7.70;48.90;;;;;;4969480;28;20434;-74
2021/04/06 08:15:00;;;;;;;6.50;2.60;;;7.20;51.40;;;;;;4972724;28;21092;-74
2021/04/06 08:17:26;;;;;;;4.60;2.13;;;7.10;51.10;;;;;;4967610;28;20415;-74
2021/04/06 08:19:59;;;;;;;7.37;2.20;;;6.70;52.50;;;;;;4935250;28;20876;-74
2021/04/06 08:22:49;;;;;;;15.87;2.27;;;7.10;54.70;;;;;;4958622;28;20685;-74
2021/04/06 08:25:21;;;;;;;9.27;2.97;;;9.00;50.00;;;;;;4981934;28;20471;-75
2021/04/06 08:27:49;;;;;;;9.43;2.77;;;9.90;47.20;;;;;;4985114;28;20423;-75
2021/04/06 08:30:24;;;;;;;6.73;2.50;;;10.30;44.60;;;;;;4974577;28;20570;-73
2021/04/06 08:32:59;;;;;;;14.90;5.10;;;9.80;44.40;;;;;;4977554;28;20933;-74
2021/04/06 08:35:49;;;;;;;5.23;2.07;;;10.00;44.40;;;;;;4942695;28;20783;-74
2021/04/06 08:38:24;;;;;;;9.60;3.70;;;9.80;45.50;;;;;;4973882;28;20424;-75
2021/04/06 08:41:10;;;;;;;7.80;4.00;;;9.40;45.20;;;;;;4974052;28;20458;-75
2021/04/06 08:43:56;;;;;;;11.40;5.50;;;8.80;46.10;;;;;;4974644;28;20927;-74
2021/04/06 08:46:35;;;;;;;9.77;4.10;;;8.00;46.60;;;;;;4983595;28;20442;-74
2021/04/06 08:49:09;;;;;;;7.30;3.00;;;7.50;48.50;;;;;;4970170;28;20416;-73
2021/04/06 08:51:40;;;;;;;6.90;2.70;;;7.60;48.60;;;;;;4972961;28;21156;-74
2021/04/06 08:54:11;;;;;;;7.53;3.27;;;8.20;48.00;;;;;;4958129;28;20774;-75
2021/04/06 08:56:43;;;;;;;5.43;2.00;;;8.20;48.80;;;;;;4957145;28;20507;-74
2021/04/06 08:59:44;;;;;;;13.10;3.17;;;8.20;48.00;;;;;;4963532;28;20454;-75
2021/04/06 09:02:16;;;;;;;7.00;2.13;;;7.60;48.20;;;;;;4945861;28;20447;-74
2021/04/06 09:04:46;;;;;;;6.60;3.00;;;7.50;49.40;;;;;;4956256;28;20527;-73
2021/04/06 09:07:20;;;;;;;2.50;1.67;;;8.20;48.80;;;;;;4954780;28;20412;-74
2021/04/06 09:09:50;;;;;;;6.13;2.87;;;8.50;47.70;;;;;;4966205;28;20444;-74
2021/04/06 09:12:16;;;;;;;7.97;3.00;;;8.20;47.60;;;;;;4975824;28;20451;-73
2021/04/06 09:14:43;;;;;;;7.17;2.13;;;7.80;48.80;;;;;;4970047;28;20412;-74
2021/04/06 09:17:09;;;;;;;3.90;2.33;;;7.40;49.10;;;;;;4928039;29;20441;-74
2021/04/06 09:19:36;;;;;;;5.77;2.47;;;7.30;50.70;;;;;;4943594;28;20451;-74
2021/04/06 09:22:05;;;;;;;5.63;2.20;;;7.50;49.40;;;;;;4989118;28;20204;-74
2021/04/06 09:24:31;;;;;;;9.43;2.00;;;8.10;48.50;;;;;;4974879;28;20813;-75
2021/04/06 09:26:58;;;;;;;3.63;2.00;;;8.40;47.10;;;;;;4973522;28;20415;-74
2021/04/06 09:29:27;;;;;;;6.23;2.80;;;8.70;46.60;;;;;;4955972;28;20439;-75
2021/04/06 09:31:56;;;;;;;4.77;2.47;;;8.30;47.00;;;;;;4954543;28;20535;-75
2021/04/06 09:34:28;;;;;;;6.70;2.37;;;7.80;48.30;;;;;;4977965;28;20493;-74
2021/04/06 09:37:13;;;;;;;9.50;4.93;;;8.40;49.30;;;;;;4965754;28;20459;-74
2021/04/06 09:39:45;;;;;;;12.37;3.90;;;10.40;45.10;;;;;;4955795;29;20452;-74
2021/04/06 09:42:12;;;;;;;12.23;3.60;;;10.90;43.00;;;;;;4973063;28;20422;-74
2021/04/06 09:44:41;;;;;;;6.10;3.03;;;10.70;42.80;;;;;;4958739;28;20418;-74
2021/04/06 09:47:13;;;;;;;7.40;2.80;;;11.40;41.80;;;;;;4974089;28;20415;-75
2021/04/06 09:49:44;;;;;;;4.47;2.40;;;12.20;41.30;;;;;;4977341;28;20498;-73
2021/04/06 09:52:19;;;;;;;4.87;2.83;;;13.10;38.60;;;;;;4978532;28;20434;-72
2021/04/06 09:54:48;;;;;;;7.50;1.90;;;13.20;36.80;;;;;;4988970;28;20419;-74
2021/04/06 09:57:16;;;;;;;7.47;3.40;;;13.30;35.40;;;;;;4967557;28;21097;-74
2021/04/06 09:59:54;;;;;;;6.47;2.60;;;13.40;36.60;;;;;;4948945;28;20482;-74
2021/04/06 10:02:25;;;;;;;7.60;4.30;;;13.00;35.50;;;;;;4954629;28;20419;-75
2021/04/06 10:04:52;;;;;;;4.00;2.70;;;12.30;36.70;;;;;;4969288;28;20416;-75
2021/04/06 10:07:22;;;;;;;4.87;2.30;;;11.80;35.90;;;;;;4968434;28;20420;-73
2021/04/06 10:09:58;;;;;;;6.17;2.33;;;11.90;37.90;;;;;;4974824;28;20447;-74
2021/04/06 10:12:31;;;;;;;8.40;3.13;;;12.90;36.20;;;;;;4972422;28;20426;-74
2021/04/06 10:14:58;;;;;;;4.97;3.00;;;13.10;34.60;;;;;;4967367;28;20435;-74
2021/04/06 10:17:39;;;;;;;4.97;2.57;;;12.60;34.80;;;;;;4969857;28;20424;-74
2021/04/06 10:20:11;;;;;;;6.13;2.40;;;11.90;36.50;;;;;;4983892;28;20454;-74
2021/04/06 10:22:57;;;;;;;3.50;2.67;;;11.50;37.30;;;;;;4979821;28;20435;-73
2021/04/06 10:25:51;;;;;;;5.23;3.37;;;10.90;38.50;;;;;;4982108;28;20495;-74
2021/04/06 10:31:25;;;;;;;8.67;2.70;;;10.70;39.70;;;;;;4967761;28;20431;-75
2021/04/06 10:33:50;;;;;;;5.00;1.83;;;11.60;37.70;;;;;;4978657;28;20420;-74
2021/04/06 10:36:22;;;;;;;9.00;3.63;;;11.50;37.50;;;;;;4971457;28;20277;-75
2021/04/06 10:38:48;;;;;;;5.37;1.83;;;11.00;37.70;;;;;;4973661;28;20222;-74
2021/04/06 10:41:14;;;;;;;3.80;2.50;;;10.10;39.10;;;;;;4977735;28;20451;-74
2021/04/06 10:43:43;;;;;;;6.33;2.40;;;9.10;43.30;;;;;;4934289;29;20259;-76
2021/04/06 10:46:22;;;;;;;37.70;16.30;;;7.80;49.50;;;;;;4962595;28;20420;-75
2021/04/06 10:49:02;;;;;;;6.67;2.23;;;7.00;52.10;;;;;;4949489;28;20424;-75
2021/04/06 10:51:29;;;;;;;3.73;2.17;;;6.70;56.10;;;;;;4962172;28;20423;-76
2021/04/06 10:54:08;;;;;;;5.57;2.87;;;6.80;57.20;;;;;;4969279;28;20428;-74
2021/04/06 10:56:46;;;;;;;6.33;2.60;;;7.10;57.40;;;;;;4957903;28;20430;-75
2021/04/06 10:59:13;;;;;;;7.30;2.70;;;7.30;57.10;;;;;;4969919;28;20547;-74
2021/04/06 11:01:45;;;;;;;10.03;2.43;;;7.50;56.80;;;;;;4980744;28;20466;-75
2021/04/06 11:04:13;;;;;;;7.30;3.50;;;7.50;54.40;;;;;;4980150;28;20427;-73
2021/04/06 11:06:42;;;;;;;10.17;6.17;;;7.50;56.30;;;;;;4959952;28;20468;-74
2021/04/06 11:09:23;;;;;;;10.23;4.87;;;7.50;55.40;;;;;;4977209;28;20468;-74
2021/04/06 11:11:51;;;;;;;26.40;7.30;;;7.40;55.10;;;;;;4974728;28;20438;-74
2021/04/06 11:14:19;;;;;;;8.53;3.60;;;7.50;56.10;;;;;;4950882;28;20435;-74
2021/04/06 11:16:47;;;;;;;3.47;2.10;;;7.60;56.50;;;;;;4952741;28;20467;-74
2021/04/06 11:19:22;;;;;;;10.03;4.70;;;7.60;55.00;;;;;;4974365;28;20440;-74
2021/04/06 11:22:11;;;;;;;19.03;7.43;;;7.70;55.80;;;;;;4957972;28;20850;-74
2021/04/06 11:24:38;;;;;;;6.80;2.63;;;7.80;54.80;;;;;;4975288;28;20424;-74
2021/04/06 11:27:06;;;;;;;24.53;8.20;;;7.90;53.10;;;;;;4975948;28;20486;-75
2021/04/06 11:29:34;;;;;;;9.27;2.57;;;7.70;52.50;;;;;;4955292;28;20440;-75
2021/04/06 11:32:05;;;;;;;8.90;2.63;;;7.50;52.20;;;;;;4967017;28;20767;-72
2021/04/06 11:34:31;;;;;;;4.97;1.93;;;7.00;52.00;;;;;;4975638;28;20784;-75
2021/04/06 11:37:04;;;;;;;3.83;1.20;;;6.30;52.90;;;;;;4958788;28;20756;-73
2021/04/06 11:39:34;;;;;;;2.47;2.10;;;5.80;54.50;;;;;;4976768;28;20579;-75
2021/04/06 11:42:03;;;;;;;7.70;2.20;;;5.60;56.20;;;;;;4975679;28;20423;-75
2021/04/06 11:44:30;;;;;;;4.73;1.70;;;5.40;56.10;;;;;;4958791;28;20770;-75
2021/04/06 11:47:02;;;;;;;2.73;1.80;;;5.30;57.50;;;;;;4951824;28;20420;-73
2021/04/06 11:49:32;;;;;;;4.17;1.70;;;5.30;57.00;;;;;;4938620;29;20814;-75
2021/04/06 11:51:58;;;;;;;6.33;1.53;;;5.40;56.90;;;;;;4968284;28;20420;-72
2021/04/06 11:54:27;;;;;;;5.13;2.47;;;5.60;56.60;;;;;;4972539;28;20437;-74
2021/04/06 11:56:58;;;;;;;3.17;2.10;;;5.10;58.50;;;;;;4975884;28;20499;-74
2021/04/06 11:59:35;;;;;;;5.43;1.83;;;4.70;60.30;;;;;;4966856;28;20981;-74
2021/04/06 12:02:01;;;;;;;5.97;1.83;;;4.40;63.40;;;;;;4962028;28;20435;-74
2021/04/06 12:04:32;;;;;;;2.87;1.20;;;4.10;65.00;;;;;;4976646;28;20416;-76
2021/04/06 12:06:58;;;;;;;6.23;1.37;;;3.80;67.20;;;;;;4963706;28;20420;-76
2021/04/06 12:09:26;;;;;;;3.90;1.13;;;3.60;68.20;;;;;;4976549;28;20451;-76
2021/04/06 12:11:52;;;;;;;5.87;1.57;;;3.30;69.80;;;;;;4988268;28;20180;-76
2021/04/06 12:14:18;;;;;;;2.07;1.50;;;3.10;71.50;;;;;;4980902;28;20944;-75
2021/04/06 12:16:52;;;;;;;9.60;3.87;;;2.80;73.40;;;;;;4981917;28;20173;-75
2021/04/06 12:19:18;;;;;;;3.23;1.63;;;2.70;75.10;;;;;;4982325;28;20243;-78
2021/04/06 12:21:43;;;;;;;52.67;21.57;;;2.70;75.90;;;;;;4969203;28;20455;-77
2021/04/06 12:24:10;;;;;;;4.97;3.43;;;2.90;76.80;;;;;;4961889;28;20986;-77
2021/04/06 12:26:42;;;;;;;4.47;1.90;;;3.30;78.30;;;;;;4952729;28;20420;-76
2021/04/06 12:29:08;;;;;;;6.03;2.33;;;3.80;76.60;;;;;;4985150;28;20455;-75
2021/04/06 12:31:34;;;;;;;1.50;1.23;;;4.20;74.30;;;;;;4981032;28;20407;-77
2021/04/06 12:34:00;;;;;;;3.20;1.63;;;4.50;73.30;;;;;;4965727;28;20415;-77
2021/04/06 12:36:30;;;;;;;5.10;1.80;;;4.80;72.20;;;;;;4987187;28;20179;-76
2021/04/06 12:38:56;;;;;;;7.00;1.83;;;4.90;71.40;;;;;;4976761;28;20251;-76
2021/04/06 12:41:22;;;;;;;4.07;1.70;;;5.00;70.90;;;;;;4992762;28;20482;-77
2021/04/06 12:43:48;;;;;;;3.13;1.97;;;5.10;71.00;;;;;;4952705;28;20416;-77
2021/04/06 12:46:15;;;;;;;7.17;3.47;;;5.10;70.90;;;;;;4980417;28;20526;-76
2021/04/06 12:48:41;;;;;;;9.03;2.37;;;5.30;71.30;;;;;;4982849;28;20412;-77
2021/04/06 12:51:07;;;;;;;4.93;1.77;;;5.50;70.50;;;;;;4967196;28;20447;-78
2021/04/06 12:53:33;;;;;;;5.83;1.83;;;5.50;68.30;;;;;;4948584;29;20169;-77
2021/04/06 12:55:59;;;;;;;7.43;3.50;;;5.50;68.40;;;;;;4957785;28;20438;-77
2021/04/06 12:58:25;;;;;;;6.27;2.60;;;5.50;69.50;;;;;;4983879;28;20428;-77
2021/04/06 13:00:51;;;;;;;3.73;2.40;;;5.50;68.30;;;;;;4968249;28;20499;-78
2021/04/06 13:03:17;;;;;;;5.13;2.50;;;5.50;67.10;;;;;;4983247;28;20412;-77
2021/04/06 13:05:45;;;;;;;6.50;2.70;;;5.70;67.40;;;;;;4987723;28;20412;-77
2021/04/06 13:08:11;;;;;;;3.90;1.60;;;5.70;64.50;;;;;;4974530;23;20716;-74
2021/04/06 13:10:39;;;;;;;3.10;1.97;;;5.50;64.70;;;;;;4936947;29;20436;-75
2021/04/06 13:13:06;;;;;;;2.50;1.53;;;5.50;65.00;;;;;;4924760;29;20261;-76